Time;durP1;ratioP1;P1;durP2;ratioP2;P2;SDS_P1;SDS_P2;PMS_P1;PMS_P2;Temp;Humidity;BMP_temperature;BMP_pressure;BME280_temperature;BME280_humidity;BME280_pressure;Samples;Min_cycle;Max_cycle;Signal;HPM_P1;HPM_P2
2022/10/28 00:01:19;;;;;;;8.00;4.90;;;;;;;13.45;100.00;102026.13;4963250;28;20553;-75
2022/10/28 00:03:48;;;;;;;6.80;5.60;;;;;;;13.40;100.00;102031.13;4952515;28;20735;-75
2022/10/28 00:06:16;;;;;;;9.07;5.67;;;;;;;13.38;100.00;102034.50;4966950;28;20216;-75
2022/10/28 00:08:42;;;;;;;8.67;5.63;;;;;;;13.37;100.00;102032.75;4968779;28;20203;-75
2022/10/28 00:11:29;;;;;;;8.47;5.43;;;;;;;13.38;99.66;102025.09;4966169;28;20192;-75
2022/10/28 00:13:56;;;;;;;8.77;5.40;;;;;;;13.37;99.83;102015.63;4980492;28;21029;-75
2022/10/28 00:16:27;;;;;;;9.50;5.70;;;;;;;13.39;99.94;102013.13;4967252;28;20216;-75
2022/10/28 00:18:53;;;;;;;8.63;5.43;;;;;;;13.40;99.64;102009.69;4966516;28;20192;-75
2022/10/28 00:21:22;;;;;;;9.07;5.70;;;;;;;13.41;100.00;102009.75;4970059;28;20208;-75
2022/10/28 00:23:48;;;;;;;8.33;5.30;;;;;;;13.41;100.00;102003.72;4963865;28;20197;-75
2022/10/28 00:26:18;;;;;;;8.27;5.17;;;;;;;13.41;100.00;102007.19;4965694;28;20567;-75
2022/10/28 00:28:50;;;;;;;10.37;6.00;;;;;;;13.42;100.00;102008.91;4967957;28;20188;-75
2022/10/28 00:31:17;;;;;;;10.33;5.63;;;;;;;13.40;100.00;102012.28;4967304;28;20184;-75
2022/10/28 00:33:43;;;;;;;7.70;5.70;;;;;;;13.42;100.00;102002.88;4970060;28;20662;-75
2022/10/28 00:36:17;;;;;;;11.43;5.90;;;;;;;13.44;100.00;102001.25;4967632;28;20184;-75
2022/10/28 00:38:44;;;;;;;9.37;5.50;;;;;;;13.43;100.00;102005.50;4964207;28;20191;-75
2022/10/28 00:41:12;;;;;;;8.67;5.37;;;;;;;13.43;100.00;102000.34;4969050;28;20199;-75
2022/10/28 00:43:41;;;;;;;10.43;5.57;;;;;;;13.45;100.00;102010.69;4965375;28;20240;-75
2022/10/28 00:46:29;;;;;;;8.40;5.90;;;;;;;13.42;100.00;102016.63;4969372;28;20200;-75
2022/10/28 00:49:02;;;;;;;9.30;5.97;;;;;;;13.46;100.00;102015.00;4967808;28;20192;-75
2022/10/28 00:51:30;;;;;;;7.53;5.57;;;;;;;13.49;100.00;102018.50;4968560;28;20227;-75
2022/10/28 00:53:56;;;;;;;8.87;5.97;;;;;;;13.49;100.00;102015.94;4969698;28;20677;-75
2022/10/28 00:56:25;;;;;;;10.23;5.90;;;;;;;13.47;100.00;102006.44;4969567;28;20275;-75
2022/10/28 00:58:54;;;;;;;10.83;5.77;;;;;;;13.46;100.00;102009.84;4970507;28;20190;-75
2022/10/28 01:01:19;;;;;;;7.90;5.60;;;;;;;13.47;100.00;102015.03;4968679;28;20215;-75
2022/10/28 01:03:46;;;;;;;10.30;6.20;;;;;;;13.42;100.00;102021.78;4966746;28;20193;-75
2022/10/28 01:06:12;;;;;;;6.67;5.73;;;;;;;13.35;100.00;102024.16;4967655;28;20196;-75
2022/10/28 01:08:38;;;;;;;9.07;5.57;;;;;;;13.26;100.00;102022.19;4968653;28;20220;-75
2022/10/28 01:11:03;;;;;;;8.20;5.43;;;;;;;13.19;100.00;102017.72;4951328;28;20612;-75
2022/10/28 01:13:35;;;;;;;9.07;5.53;;;;;;;13.18;100.00;102018.53;4969517;28;20204;-75
2022/10/28 01:16:18;;;;;;;8.00;5.37;;;;;;;13.14;100.00;102016.72;4968055;28;20200;-75
2022/10/28 01:19:26;;;;;;;8.60;5.37;;;;;;;13.15;100.00;102000.44;4969365;28;20573;-75
2022/10/28 01:21:57;;;;;;;10.87;5.50;;;;;;;13.19;100.00;102006.53;4969144;28;20235;-75
2022/10/28 01:24:32;;;;;;;11.33;6.03;;;;;;;13.18;100.00;102009.94;4969589;28;20199;-75
2022/10/28 01:27:16;;;;;;;8.47;5.40;;;;;;;13.20;100.00;102013.41;4969103;28;20286;-75
2022/10/28 01:29:47;;;;;;;8.37;5.63;;;;;;;13.19;100.00;102017.72;4969139;28;20196;-75
2022/10/28 01:32:22;;;;;;;15.07;6.90;;;;;;;13.22;100.00;102010.06;4968831;28;20213;-75
2022/10/28 01:34:55;;;;;;;7.90;6.00;;;;;;;13.25;100.00;102011.88;4970257;28;20230;-75
2022/10/28 01:38:02;;;;;;;8.80;6.33;;;;;;;13.27;100.00;102011.09;4968142;28;20189;-75
2022/10/28 01:40:44;;;;;;;8.47;6.23;;;;;;;13.26;100.00;102014.47;4970083;28;20232;-75
2022/10/28 01:43:21;;;;;;;10.20;6.40;;;;;;;13.25;100.00;102001.59;4958643;28;20216;-75
2022/10/28 01:45:59;;;;;;;10.57;5.87;;;;;;;13.23;100.00;102000.66;4942985;28;21050;-75
2022/10/28 01:48:33;;;;;;;7.40;6.00;;;;;;;13.22;100.00;102004.91;4948009;28;20243;-75
2022/10/28 01:51:20;;;;;;;11.73;6.73;;;;;;;13.15;100.00;102013.31;4966532;28;20247;-75
2022/10/28 01:53:50;;;;;;;10.93;6.07;;;;;;;13.13;100.00;102004.69;4968014;28;20212;-75
2022/10/28 01:56:22;;;;;;;8.90;6.10;;;;;;;13.14;100.00;102015.81;4973867;28;20206;-75
2022/10/28 01:58:49;;;;;;;12.10;7.00;;;;;;;13.07;100.00;102004.50;4970106;28;20203;-75
2022/10/28 02:01:16;;;;;;;7.87;6.27;;;;;;;13.08;100.00;102005.38;4973431;28;20814;-75
2022/10/28 02:03:44;;;;;;;10.17;6.13;;;;;;;13.09;100.00;102005.44;4972417;28;20256;-75
2022/10/28 02:06:21;;;;;;;7.80;6.20;;;;;;;13.10;100.00;102002.03;4970045;28;20204;-75
2022/10/28 02:09:10;;;;;;;8.40;6.23;;;;;;;13.08;100.00;101995.09;4973391;28;20200;-75
2022/10/28 02:12:09;;;;;;;11.97;6.77;;;;;;;13.13;100.00;101993.53;4959439;28;20271;-75
2022/10/28 02:14:50;;;;;;;8.57;5.67;;;;;;;13.12;100.00;101994.34;4970874;28;20247;-75
2022/10/28 02:17:37;;;;;;;10.23;6.13;;;;;;;13.12;100.00;101990.06;4971622;28;20196;-75
2022/10/28 02:20:08;;;;;;;13.37;6.87;;;;;;;13.12;100.00;101989.22;4970689;28;20226;-74
2022/10/28 02:22:55;;;;;;;8.93;5.97;;;;;;;13.13;100.00;101991.84;4969834;28;20575;-76
2022/10/28 02:25:24;;;;;;;9.63;6.27;;;;;;;13.15;100.00;101984.13;4968414;28;20189;-76
2022/10/28 02:27:50;;;;;;;7.23;5.97;;;;;;;13.13;100.00;101984.13;4972183;28;20619;-76
2022/10/28 02:30:47;;;;;;;9.83;6.23;;;;;;;13.16;100.00;101975.59;4971552;28;20204;-76
2022/10/28 02:33:27;;;;;;;13.77;6.73;;;;;;;13.20;100.00;101972.25;4944629;28;20230;-76
2022/10/28 02:35:58;;;;;;;12.40;6.57;;;;;;;13.19;100.00;101967.94;4968883;28;20677;-76
2022/10/28 02:38:38;;;;;;;9.40;6.43;;;;;;;13.18;100.00;101969.69;4967317;28;20195;-76
2022/10/28 02:41:12;;;;;;;9.63;6.07;;;;;;;13.17;100.00;101961.91;4970943;28;20189;-76
2022/10/28 02:43:42;;;;;;;8.50;6.30;;;;;;;13.17;100.00;101959.34;4966126;28;20236;-76
2022/10/28 02:46:10;;;;;;;9.63;6.67;;;;;;;13.26;100.00;101964.72;4969044;28;20282;-76
2022/10/28 02:48:47;;;;;;;10.13;6.60;;;;;;;13.27;100.00;101969.03;4968904;28;20238;-76
2022/10/28 02:51:19;;;;;;;11.47;6.90;;;;;;;13.26;100.00;101968.16;4966415;28;20200;-76
2022/10/28 02:54:06;;;;;;;8.60;6.30;;;;;;;13.23;100.00;101957.81;4968593;28;20223;-76
2022/10/28 02:56:37;;;;;;;12.90;7.07;;;;;;;13.22;100.00;101957.75;4965585;28;20271;-76
2022/10/28 02:59:08;;;;;;;8.90;6.33;;;;;;;13.21;100.00;101964.59;4971783;28;20196;-76
2022/10/28 03:01:33;;;;;;;14.30;6.97;;;;;;;13.19;100.00;101963.69;4967761;28;20682;-75
2022/10/28 03:03:59;;;;;;;8.67;6.03;;;;;;;13.17;100.00;101946.47;4965369;28;20212;-75
2022/10/28 03:06:24;;;;;;;12.53;6.50;;;;;;;13.17;100.00;101938.75;4971256;28;20690;-75
2022/10/28 03:08:50;;;;;;;9.40;6.43;;;;;;;13.22;100.00;101934.59;4966071;28;20569;-75
2022/10/28 03:11:15;;;;;;;12.17;6.77;;;;;;;13.20;100.00;101932.00;4968966;28;20224;-75
2022/10/28 03:13:41;;;;;;;10.70;6.33;;;;;;;13.20;100.00;101923.41;4951611;28;20191;-75
2022/10/28 03:16:06;;;;;;;13.27;6.67;;;;;;;13.18;100.00;101925.94;4971233;28;20595;-75
2022/10/28 03:18:32;;;;;;;9.13;6.13;;;;;;;13.18;100.00;101937.94;4968695;28;20192;-75
2022/10/28 03:20:57;;;;;;;8.93;6.57;;;;;;;13.12;100.00;101932.63;4967630;28;20220;-75
2022/10/28 03:23:22;;;;;;;11.03;6.30;;;;;;;13.11;100.00;101921.47;4966570;28;20238;-75
2022/10/28 03:25:48;;;;;;;9.40;6.33;;;;;;;13.09;100.00;101925.72;4969710;28;21435;-75
2022/10/28 03:28:13;;;;;;;11.23;7.17;;;;;;;13.09;100.00;101933.44;4969805;28;20208;-75
2022/10/28 03:30:38;;;;;;;7.47;6.03;;;;;;;12.98;100.00;101928.81;4965197;28;20197;-75
2022/10/28 03:33:04;;;;;;;12.10;6.40;;;;;;;12.93;100.00;101923.50;4969802;28;20224;-75
2022/10/28 03:35:29;;;;;;;8.80;5.67;;;;;;;12.90;100.00;101919.16;4967803;28;20195;-75
2022/10/28 03:37:55;;;;;;;10.63;7.10;;;;;;;12.90;100.00;101920.88;4970586;28;20282;-75
2022/10/28 03:40:20;;;;;;;12.67;6.87;;;;;;;12.91;100.00;101922.59;4969212;28;20545;-75
2022/10/28 03:42:46;;;;;;;12.50;6.90;;;;;;;12.91;100.00;101926.03;4969484;28;20212;-75
2022/10/28 03:45:11;;;;;;;10.37;6.17;;;;;;;12.96;100.00;101923.59;4970576;28;20207;-75
2022/10/28 03:47:36;;;;;;;8.70;6.30;;;;;;;12.94;100.00;101920.09;4961426;28;20212;-75
2022/10/28 03:50:02;;;;;;;8.13;6.10;;;;;;;12.92;100.00;101911.50;4970690;28;20243;-75
2022/10/28 03:52:28;;;;;;;10.30;6.17;;;;;;;12.84;100.00;101915.53;4969932;28;20220;-75
2022/10/28 03:54:53;;;;;;;9.93;6.10;;;;;;;12.83;100.00;101913.81;4970404;28;20281;-75
2022/10/28 03:57:19;;;;;;;12.90;6.83;;;;;;;12.81;100.00;101923.19;4971567;28;20192;-75
2022/10/28 03:59:44;;;;;;;7.80;5.93;;;;;;;12.84;100.00;101921.56;4968584;28;20276;-75
2022/10/28 04:02:09;;;;;;;7.93;5.80;;;;;;;12.87;100.00;101915.63;4971360;28;20227;-75
2022/10/28 04:04:35;;;;;;;8.23;4.87;;;;;;;12.80;100.00;101919.75;4953817;28;20215;-75
2022/10/28 04:07:00;;;;;;;8.10;6.00;;;;;;;12.77;100.00;101909.34;4969945;28;20805;-75
2022/10/28 04:09:25;;;;;;;9.70;5.83;;;;;;;12.79;100.00;101907.72;4970302;28;20613;-75
2022/10/28 04:11:51;;;;;;;9.63;6.30;;;;;;;12.77;100.00;101908.50;4969754;28;20212;-75
2022/10/28 04:14:16;;;;;;;10.97;6.00;;;;;;;12.82;100.00;101915.50;4970451;28;20201;-75
2022/10/28 04:16:42;;;;;;;11.27;5.87;;;;;;;12.79;100.00;101914.56;4971112;28;20557;-75
2022/10/28 04:19:07;;;;;;;9.80;6.33;;;;;;;12.78;100.00;101903.41;4970202;28;20196;-75
2022/10/28 04:21:33;;;;;;;9.30;5.90;;;;;;;12.77;100.00;101901.66;4968406;28;20224;-75
2022/10/28 04:23:58;;;;;;;10.20;7.03;;;;;;;12.79;100.00;101911.97;4970541;28;20224;-75
2022/10/28 04:26:24;;;;;;;8.23;6.57;;;;;;;12.82;100.00;101904.38;4968999;28;20216;-75
2022/10/28 04:28:49;;;;;;;12.20;7.00;;;;;;;12.84;100.00;101903.56;4967475;28;20199;-75
2022/10/28 04:31:15;;;;;;;8.40;7.07;;;;;;;12.85;100.00;101892.47;4968779;28;20196;-75
2022/10/28 04:33:40;;;;;;;12.33;7.67;;;;;;;12.86;100.00;101881.34;4970816;28;20203;-75
2022/10/28 04:36:06;;;;;;;13.13;7.37;;;;;;;12.94;100.00;101892.69;4969646;28;20271;-75
2022/10/28 04:38:31;;;;;;;12.17;7.03;;;;;;;12.99;100.00;101899.72;4970519;28;20208;-75
2022/10/28 04:40:56;;;;;;;13.07;7.60;;;;;;;12.96;100.00;101890.19;4970384;28;20239;-75
2022/10/28 04:43:22;;;;;;;9.20;7.03;;;;;;;12.97;100.00;101889.38;4970634;28;20231;-75
2022/10/28 04:45:47;;;;;;;10.93;6.97;;;;;;;12.91;100.00;101894.34;4969217;28;20188;-75
2022/10/28 04:48:13;;;;;;;11.83;7.30;;;;;;;12.92;100.00;101903.78;4968829;28;20235;-75
2022/10/28 04:50:38;;;;;;;8.67;6.27;;;;;;;12.93;100.00;101904.66;4970354;28;20395;-75
2022/10/28 04:53:09;;;;;;;9.97;7.00;;;;;;;12.95;100.00;101899.56;4969450;28;20216;-75
2022/10/28 04:55:34;;;;;;;12.07;6.80;;;;;;;12.94;100.00;101910.69;4968869;28;20232;-75
2022/10/28 04:58:00;;;;;;;10.67;7.30;;;;;;;12.93;100.00;101901.25;4968932;28;20220;-75
2022/10/28 05:00:27;;;;;;;10.20;6.57;;;;;;;12.94;100.00;101909.81;4970601;28;20358;-75
2022/10/28 05:02:53;;;;;;;8.40;6.27;;;;;;;12.95;100.00;101902.16;4970100;28;20216;-75
2022/10/28 05:05:19;;;;;;;11.60;6.73;;;;;;;12.94;100.00;101900.41;4971986;28;20907;-75
2022/10/28 05:07:45;;;;;;;9.17;7.23;;;;;;;12.93;100.00;101897.78;4971666;28;20678;-75
2022/10/28 05:10:11;;;;;;;10.63;7.60;;;;;;;13.00;100.00;101906.59;4969316;28;20196;-75
2022/10/28 05:12:40;;;;;;;11.03;7.23;;;;;;;13.05;100.00;101894.72;4969266;28;20220;-75
2022/10/28 05:15:06;;;;;;;10.77;7.17;;;;;;;13.13;100.00;101888.97;4968014;28;20888;-75
2022/10/28 05:17:31;;;;;;;10.00;6.83;;;;;;;13.11;100.00;101888.03;4967527;28;20613;-75
2022/10/28 05:19:57;;;;;;;11.07;6.87;;;;;;;13.11;100.00;101888.03;4970995;28;20255;-75
2022/10/28 05:22:22;;;;;;;12.77;7.77;;;;;;;13.14;100.00;101885.56;4966291;28;20291;-75
2022/10/28 05:24:48;;;;;;;11.73;7.50;;;;;;;13.17;100.00;101884.75;4970454;28;20216;-75
2022/10/28 05:27:14;;;;;;;9.50;7.27;;;;;;;13.17;100.00;101875.31;4969796;28;20299;-75
2022/10/28 05:29:40;;;;;;;12.20;7.20;;;;;;;13.20;100.00;101877.09;4966194;28;20205;-75
2022/10/28 05:32:05;;;;;;;12.60;7.40;;;;;;;13.21;100.00;101872.00;4973588;28;20223;-75
2022/10/28 05:34:31;;;;;;;11.30;7.57;;;;;;;13.28;100.00;101861.03;4970151;28;20652;-75
2022/10/28 05:36:56;;;;;;;10.30;7.87;;;;;;;13.32;100.00;101865.44;4971758;28;20188;-75
2022/10/28 05:39:22;;;;;;;14.13;7.63;;;;;;;13.32;100.00;101859.41;4973085;28;20196;-75
2022/10/28 05:41:47;;;;;;;11.13;6.90;;;;;;;13.28;100.00;101870.44;4967481;28;20219;-75
2022/10/28 05:44:13;;;;;;;11.63;6.73;;;;;;;13.21;100.00;101858.28;4970343;28;20212;-75
2022/10/28 05:46:38;;;;;;;10.90;6.90;;;;;;;13.15;100.00;101864.13;4970027;28;20234;-75
2022/10/28 05:49:03;;;;;;;12.03;7.00;;;;;;;13.08;100.00;101863.94;4966192;28;20224;-75
2022/10/28 05:51:29;;;;;;;11.40;7.20;;;;;;;13.01;100.00;101857.78;4971629;28;20239;-75
2022/10/28 05:53:54;;;;;;;10.93;7.03;;;;;;;12.95;100.00;101852.44;4970670;28;20256;-75
2022/10/28 05:56:19;;;;;;;9.30;6.80;;;;;;;12.93;100.00;101847.25;4965815;28;20200;-75
2022/10/28 05:58:46;;;;;;;11.30;7.27;;;;;;;12.89;100.00;101853.16;4970141;28;20212;-75
2022/10/28 06:01:11;;;;;;;9.00;6.57;;;;;;;12.82;100.00;101858.94;4975720;28;20665;-75
2022/10/28 06:03:37;;;;;;;10.67;7.20;;;;;;;12.78;100.00;101858.84;4967959;28;20189;-75
2022/10/28 06:06:02;;;;;;;10.67;7.00;;;;;;;12.71;100.00;101854.34;4971746;28;20234;-75
2022/10/28 06:08:28;;;;;;;9.77;7.30;;;;;;;12.73;100.00;101855.28;4967822;28;20212;-75
2022/10/28 06:10:53;;;;;;;10.57;6.40;;;;;;;12.67;100.00;101855.97;4970961;28;20208;-75
2022/10/28 06:13:19;;;;;;;7.70;6.30;;;;;;;12.60;100.00;101855.78;4970459;28;20226;-75
2022/10/28 06:15:56;;;;;;;8.80;6.00;;;;;;;12.56;100.00;101857.41;4969253;28;20272;-75
2022/10/28 06:18:22;;;;;;;9.63;6.13;;;;;;;12.47;100.00;101861.38;4970056;28;20208;-75
2022/10/28 06:20:55;;;;;;;10.90;5.77;;;;;;;12.46;100.00;101862.22;4968482;28;20207;-75
2022/10/28 06:23:21;;;;;;;8.07;5.57;;;;;;;12.41;100.00;101856.09;4970788;28;20235;-75
2022/10/28 06:25:47;;;;;;;10.73;6.47;;;;;;;12.43;100.00;101859.56;4968263;28;20212;-75
2022/10/28 06:28:13;;;;;;;13.83;6.40;;;;;;;12.38;100.00;101864.59;4971817;28;20713;-75
2022/10/28 06:30:38;;;;;;;8.97;6.00;;;;;;;12.39;100.00;101866.31;4971753;28;20184;-75
2022/10/28 06:33:03;;;;;;;10.33;6.60;;;;;;;12.36;100.00;101867.94;4969334;28;20299;-75
2022/10/28 06:35:29;;;;;;;6.30;5.30;;;;;;;12.33;100.00;101873.84;4973268;28;20188;-75
2022/10/28 06:37:55;;;;;;;10.63;6.23;;;;;;;12.35;100.00;101874.75;4970069;28;20547;-75
2022/10/28 06:40:22;;;;;;;8.53;6.30;;;;;;;12.36;100.00;101873.94;4968699;28;20276;-75
2022/10/28 06:42:48;;;;;;;8.87;6.37;;;;;;;12.39;100.00;101868.88;4971826;28;20690;-75
2022/10/28 06:45:13;;;;;;;7.67;6.23;;;;;;;12.45;100.00;101866.47;4969855;28;20193;-75
2022/10/28 06:47:39;;;;;;;9.80;7.00;;;;;;;12.52;100.00;101870.09;4973112;28;20216;-75
2022/10/28 06:50:04;;;;;;;9.27;6.37;;;;;;;12.55;100.00;101860.78;4971433;28;20714;-75
2022/10/28 06:52:30;;;;;;;13.20;6.90;;;;;;;12.72;100.00;101866.41;4973147;28;20216;-75
2022/10/28 06:54:55;;;;;;;7.70;6.27;;;;;;;12.74;100.00;101857.00;4973072;28;20281;-75
2022/10/28 06:57:21;;;;;;;10.33;6.37;;;;;;;12.74;100.00;101859.56;4972166;28;20296;-75
2022/10/28 06:59:48;;;;;;;9.73;6.70;;;;;;;12.77;100.00;101873.38;4972753;28;20193;-75
2022/10/28 07:02:14;;;;;;;9.90;7.27;;;;;;;12.83;100.00;101885.53;4958400;28;20232;-75
2022/10/28 07:04:41;;;;;;;16.23;8.43;;;;;;;12.90;100.00;101892.59;4971786;28;20196;-75
2022/10/28 07:07:06;;;;;;;12.40;8.27;;;;;;;12.93;100.00;101888.41;4972504;28;20267;-75
2022/10/28 07:09:32;;;;;;;10.80;7.43;;;;;;;12.98;100.00;101890.25;4971873;28;20203;-75
2022/10/28 07:11:58;;;;;;;12.97;7.10;;;;;;;13.04;100.00;101887.84;4970706;28;20208;-75
2022/10/28 07:14:23;;;;;;;9.17;6.70;;;;;;;13.07;100.00;101886.22;4969745;28;20286;-75
2022/10/28 07:16:49;;;;;;;11.80;6.83;;;;;;;13.13;100.00;101885.50;4969607;28;20191;-75
2022/10/28 07:19:14;;;;;;;11.50;6.80;;;;;;;13.15;100.00;101887.28;4970984;28;20646;-74
2022/10/28 07:21:40;;;;;;;9.33;6.80;;;;;;;13.22;100.00;101880.59;4970387;28;20216;-75
2022/10/28 07:24:05;;;;;;;10.50;7.20;;;;;;;13.34;100.00;101888.59;4972234;28;20215;-74
2022/10/28 07:26:31;;;;;;;11.70;7.50;;;;;;;13.53;100.00;101880.53;4968877;28;20692;-73
2022/10/28 07:28:56;;;;;;;9.93;7.57;;;;;;;13.63;100.00;101880.75;4951597;28;20264;-75
2022/10/28 07:31:22;;;;;;;12.03;7.57;;;;;;;13.75;100.00;101878.47;4962868;28;20341;-76
2022/10/28 07:33:52;;;;;;;15.27;8.30;;;;;;;13.93;100.00;101872.88;4969527;28;20204;-76
2022/10/28 07:36:17;;;;;;;10.20;7.53;;;;;;;13.98;100.00;101872.16;4969832;28;20188;-76
2022/10/28 07:38:42;;;;;;;15.57;7.63;;;;;;;14.15;100.00;101867.34;4967879;28;20616;-76
2022/10/28 07:41:09;;;;;;;16.87;8.30;;;;;;;14.32;100.00;101864.31;4969390;28;20185;-76
2022/10/28 07:43:37;;;;;;;14.83;8.43;;;;;;;14.51;100.00;101856.13;4967333;28;20666;-76
2022/10/28 07:46:04;;;;;;;15.43;8.10;;;;;;;14.66;100.00;101858.13;4967098;28;20307;-76
2022/10/28 07:48:30;;;;;;;12.03;7.00;;;;;;;14.75;100.00;101855.72;4969506;28;20217;-76
2022/10/28 07:50:59;;;;;;;13.70;8.13;;;;;;;14.91;99.52;101855.19;4969619;28;20227;-76
2022/10/28 07:53:24;;;;;;;11.17;7.50;;;;;;;15.03;99.69;101860.53;4965680;28;20209;-76
2022/10/28 07:55:58;;;;;;;11.63;6.13;;;;;;;15.25;99.07;101853.22;4969451;28;20740;-76
2022/10/28 07:58:23;;;;;;;11.93;6.63;;;;;;;15.44;98.55;101849.22;4972136;28;20259;-76
2022/10/28 08:00:49;;;;;;;13.57;6.93;;;;;;;15.67;97.52;101848.75;4970252;28;20877;-76
2022/10/28 08:03:14;;;;;;;10.47;6.10;;;;;;;15.78;97.08;101851.47;4970791;28;20698;-76
2022/10/28 08:05:40;;;;;;;9.73;6.43;;;;;;;15.94;96.24;101850.84;4971007;28;20189;-76
2022/10/28 08:08:05;;;;;;;11.30;6.10;;;;;;;16.07;95.27;101855.34;4969010;28;20737;-76
2022/10/28 08:10:31;;;;;;;12.17;6.30;;;;;;;16.22;94.56;101859.00;4971785;28;20295;-76
2022/10/28 08:12:59;;;;;;;10.90;6.50;;;;;;;16.48;93.49;101857.63;4970410;28;20239;-76
2022/10/28 08:15:25;;;;;;;13.10;6.03;;;;;;;16.69;92.53;101847.53;4967239;28;20204;-76
2022/10/28 08:17:52;;;;;;;13.03;6.23;;;;;;;16.88;91.52;101851.16;4967025;28;20191;-76
2022/10/28 08:20:18;;;;;;;8.53;5.93;;;;;;;17.00;90.39;101852.13;4967029;28;20207;-76
2022/10/28 08:22:43;;;;;;;12.43;5.93;;;;;;;17.05;90.10;101845.31;4970331;28;20208;-76
2022/10/28 08:25:09;;;;;;;10.20;5.43;;;;;;;17.24;89.83;101847.19;4966156;28;20235;-76
2022/10/28 08:27:34;;;;;;;9.00;5.60;;;;;;;17.47;88.17;101837.91;4965471;28;20295;-77
2022/10/28 08:29:59;;;;;;;8.07;4.87;;;;;;;17.69;87.30;101832.00;4971029;28;20199;-77
2022/10/28 08:32:25;;;;;;;8.75;4.80;;;;;;;17.86;86.08;101837.28;4969232;28;20290;-76
2022/10/28 08:34:50;;;;;;;10.87;4.90;;;;;;;17.87;85.83;101833.88;4968566;28;20204;-77
2022/10/28 08:37:16;;;;;;;8.20;4.90;;;;;;;18.46;84.44;101832.41;4966553;28;20184;-77
2022/10/28 08:39:41;;;;;;;6.18;4.53;;;;;;;18.62;82.28;101840.28;4964539;28;20233;-76
2022/10/28 08:42:21;;;;;;;10.07;4.57;;;;;;;19.26;80.18;101834.28;4967379;28;20216;-77
2022/10/28 08:45:07;;;;;;;10.70;4.53;;;;;;;21.14;73.02;101831.03;4967525;28;20255;-77
2022/10/28 08:47:59;;;;;;;8.40;4.72;;;;;;;23.02;65.22;101816.63;4949131;28;20244;-77
2022/10/28 08:50:30;;;;;;;7.68;4.38;;;;;;;24.18;59.81;101817.16;4965333;28;20208;-77
2022/10/28 08:53:06;;;;;;;9.80;4.45;;;;;;;24.11;59.37;101815.53;4952438;28;20304;-75
2022/10/28 08:55:37;;;;;;;8.13;4.30;;;;;;;24.48;57.75;101814.75;4965063;28;20246;-77
2022/10/28 08:58:14;;;;;;;7.72;4.35;;;;;;;24.54;56.22;101811.13;4955245;28;20725;-77
2022/10/28 09:00:44;;;;;;;9.57;5.10;;;;;;;25.03;56.35;101820.47;4966022;28;20204;-76
2022/10/28 09:03:10;;;;;;;9.60;4.88;;;;;;;25.20;55.29;101820.06;4964502;28;20673;-77
2022/10/28 09:05:36;;;;;;;7.15;4.10;;;;;;;25.78;52.59;101802.75;4961012;28;20224;-77
2022/10/28 09:08:02;;;;;;;10.05;4.38;;;;;;;25.98;53.18;101795.25;4969383;28;20225;-76
2022/10/28 09:10:59;;;;;;;8.43;4.60;;;;;;;26.64;51.74;101801.13;4965689;28;20203;-76
2022/10/28 09:13:33;;;;;;;5.10;4.40;;;;;;;26.65;50.88;101802.84;4967688;28;20689;-76
2022/10/28 09:16:08;;;;;;;8.30;4.50;;;;;;;27.58;48.89;101791.81;4966764;28;20203;-76
2022/10/28 09:18:53;;;;;;;7.07;4.30;;;;;;;28.39;47.43;101791.47;4965968;28;20312;-77
2022/10/28 09:21:26;;;;;;;6.53;4.35;;;;;;;28.19;47.05;101790.47;4982394;28;20204;-76
2022/10/28 09:23:58;;;;;;;8.27;4.25;;;;;;;27.95;47.50;101788.75;4967671;28;20192;-76
2022/10/28 09:26:23;;;;;;;9.90;4.38;;;;;;;28.46;46.37;101785.00;4967915;28;20188;-77
2022/10/28 09:29:10;;;;;;;7.75;3.92;;;;;;;28.90;45.56;101783.22;4967132;28;20287;-77
2022/10/28 09:31:45;;;;;;;6.82;4.10;;;;;;;29.38;44.30;101776.78;4970326;28;20204;-77
2022/10/28 09:34:32;;;;;;;9.52;4.60;;;;;;;29.00;45.41;101771.41;4968710;28;20704;-77
2022/10/28 09:37:05;;;;;;;7.75;4.32;;;;;;;29.60;45.05;101774.09;4968246;28;20189;-77
2022/10/28 09:39:40;;;;;;;6.38;4.13;;;;;;;29.40;44.83;101776.72;4963337;28;20723;-76
2022/10/28 09:42:12;;;;;;;5.47;4.25;;;;;;;28.85;46.13;101772.88;4961621;28;20239;-76
2022/10/28 09:44:44;;;;;;;6.55;4.22;;;;;;;29.53;44.76;101765.53;4970601;28;20191;-77
2022/10/28 09:47:18;;;;;;;5.93;4.20;;;;;;;30.11;44.64;101774.38;4973892;28;20611;-76
2022/10/28 09:49:47;;;;;;;9.93;4.72;;;;;;;30.67;42.68;101766.44;4971798;28;20199;-77
2022/10/28 09:52:18;;;;;;;7.05;3.90;;;;;;;30.28;43.17;101761.25;4972654;28;20196;-77
2022/10/28 09:54:49;;;;;;;7.53;4.68;;;;;;;31.26;41.39;101756.41;4972110;28;20196;-78
2022/10/28 09:57:15;;;;;;;6.95;3.92;;;;;;;31.45;40.18;101754.53;4953524;28;20254;-78
2022/10/28 09:59:40;;;;;;;5.93;4.22;;;;;;;32.02;39.41;101751.44;4970875;28;20649;-77
2022/10/28 10:02:25;;;;;;;6.45;4.07;;;;;;;32.12;39.77;101757.94;4967581;28;20232;-77
2022/10/28 10:04:52;;;;;;;8.57;4.10;;;;;;;33.30;37.36;101761.69;4966874;28;20239;-77
2022/10/28 10:07:29;;;;;;;10.10;4.10;;;;;;;33.07;37.93;101762.19;4969510;28;20212;-76
2022/10/28 10:09:58;;;;;;;6.47;3.70;;;;;;;33.28;37.63;101752.06;4967063;28;20292;-75
2022/10/28 10:12:23;;;;;;;8.98;3.45;;;;;;;32.16;37.01;101754.16;4969905;28;20577;-77
2022/10/28 10:14:53;;;;;;;7.20;3.20;;;;;;;32.74;36.84;101750.81;4967008;28;20193;-77
2022/10/28 10:17:23;;;;;;;9.48;5.32;;;;;;;31.92;37.03;101750.22;4973597;28;20203;-76
2022/10/28 10:20:09;;;;;;;8.30;4.38;;;;;;;32.52;36.92;101753.00;4971744;28;20667;-77
2022/10/28 10:22:37;;;;;;;6.13;3.28;;;;;;;33.22;35.25;101747.09;4959993;28;20200;-76
2022/10/28 10:25:22;;;;;;;8.45;3.50;;;;;;;34.28;34.87;101742.19;4972205;28;20364;-76
2022/10/28 10:27:53;;;;;;;8.98;3.33;;;;;;;34.83;33.16;101737.66;4971062;28;20204;-76
2022/10/28 10:30:32;;;;;;;7.82;3.22;;;;;;;34.85;32.67;101749.09;4969771;28;20217;-76
2022/10/28 10:32:58;;;;;;;7.32;3.22;;;;;;;33.25;34.83;101752.25;4970827;28;20218;-75
2022/10/28 10:35:35;;;;;;;8.20;3.47;;;;;;;32.59;35.75;101746.41;4966782;28;20195;-76
2022/10/28 10:38:05;;;;;;;5.63;3.35;;;;;;;31.59;38.46;101752.00;4958304;28;20189;-77
2022/10/28 10:40:34;;;;;;;7.35;3.60;;;;;;;30.43;41.19;101751.75;4952251;28;20551;-77
2022/10/28 10:43:17;;;;;;;7.70;3.30;;;;;;;30.83;39.17;101751.53;4964635;28;20218;-75
2022/10/28 10:45:59;;;;;;;10.02;3.42;;;;;;;32.29;37.24;101741.97;4970787;28;20212;-77
2022/10/28 10:48:26;;;;;;;9.68;3.55;;;;;;;34.04;33.73;101731.34;4969536;28;20220;-77
2022/10/28 10:50:53;;;;;;;6.10;3.05;;;;;;;34.90;31.86;101721.16;4968932;28;20199;-76
2022/10/28 10:53:25;;;;;;;6.75;3.45;;;;;;;34.39;32.39;101723.78;4969205;28;20212;-76
2022/10/28 10:55:54;;;;;;;7.78;3.50;;;;;;;33.05;34.29;101720.72;4961677;28;20588;-76
2022/10/28 10:58:23;;;;;;;6.72;3.40;;;;;;;33.87;34.27;101722.69;4964766;28;20287;-76
2022/10/28 11:00:55;;;;;;;8.05;3.33;;;;;;;34.87;32.99;101713.41;4970979;28;20224;-76
2022/10/28 11:03:29;;;;;;;5.97;3.17;;;;;;;34.59;32.84;101710.00;4972027;28;20212;-76
2022/10/28 11:05:58;;;;;;;9.32;3.95;;;;;;;34.05;33.74;101709.09;4972122;28;20207;-76
2022/10/28 11:08:33;;;;;;;9.48;3.60;;;;;;;34.63;33.49;101708.84;4970824;28;20303;-77
2022/10/28 11:11:20;;;;;;;11.73;3.40;;;;;;;33.97;33.15;101703.41;4970572;28;20204;-76
2022/10/28 11:13:47;;;;;;;7.57;3.58;;;;;;;33.72;33.16;101697.91;4968852;28;20263;-76
2022/10/28 11:16:19;;;;;;;7.10;3.33;;;;;;;34.12;33.42;101696.25;4972309;28;20884;-77
2022/10/28 11:18:47;;;;;;;8.43;3.60;;;;;;;33.86;33.60;101697.06;4968372;28;20188;-77
2022/10/28 11:21:36;;;;;;;8.55;3.60;;;;;;;33.94;34.35;101700.94;4972063;28;20251;-76
2022/10/28 11:24:20;;;;;;;8.98;3.83;;;;;;;32.87;35.93;101705.88;4971130;28;20195;-77
2022/10/28 11:26:59;;;;;;;9.98;3.50;;;;;;;33.65;34.00;101707.22;4967925;28;20213;-76
2022/10/28 11:29:24;;;;;;;6.50;3.20;;;;;;;34.67;32.42;101694.38;4972590;28;20235;-76